Time;durP1;ratioP1;P1;durP2;ratioP2;P2;SDS_P1;SDS_P2;PMS_P1;PMS_P2;Temp;Humidity;BMP_temperature;BMP_pressure;BME280_temperature;BME280_humidity;BME280_pressure;Samples;Min_cycle;Max_cycle;Signal;HPM_P1;HPM_P2
2022/02/27 00:02:22;;;;;;;12.15;4.63;;;;;;;;;;4963425;28;20340;-94
2022/02/27 00:04:49;;;;;;;8.77;3.80;;;;;;;;;;4959670;28;20046;-93
2022/02/27 00:07:27;;;;;;;13.25;3.67;;;;;;;;;;4965330;28;20062;-94
2022/02/27 00:10:01;;;;;;;8.50;3.50;;;;;;;;;;4969569;28;20309;-93
2022/02/27 00:12:34;;;;;;;9.23;4.28;;;;;;;;;;4961457;28;20138;-94
2022/02/27 00:15:31;;;;;;;7.55;3.58;;;;;;;;;;4963058;28;20300;-94
2022/02/27 00:18:13;;;;;;;6.75;2.97;;;;;;;;;;4968709;28;20059;-93
2022/02/27 00:20:44;;;;;;;7.38;2.58;;;;;;;;;;4971531;28;20102;-94
2022/02/27 00:23:17;;;;;;;6.13;2.70;;;;;;;;;;4987783;28;20086;-94
2022/02/27 00:25:48;;;;;;;8.77;3.63;;;;;;;;;;4988560;28;20105;-94
2022/02/27 00:28:18;;;;;;;9.77;3.30;;;;;;;;;;4982063;28;20050;-94
2022/02/27 00:30:46;;;;;;;9.70;2.88;;;;;;;;;;4983156;28;20117;-93
2022/02/27 00:33:16;;;;;;;7.45;3.13;;;;;;;;;;4985496;28;20557;-93
2022/02/27 00:35:46;;;;;;;12.80;4.25;;;;;;;;;;4988517;28;20051;-93
2022/02/27 00:38:22;;;;;;;7.60;3.08;;;;;;;;;;4987660;28;20047;-93
2022/02/27 00:40:49;;;;;;;7.88;2.95;;;;;;;;;;4970401;28;20090;-94
2022/02/27 00:43:19;;;;;;;8.18;3.20;;;;;;;;;;4969081;28;20233;-93
2022/02/27 00:45:47;;;;;;;8.52;3.22;;;;;;;;;;4964250;28;20108;-93
2022/02/27 00:48:22;;;;;;;9.32;2.85;;;;;;;;;;4962121;28;20145;-92
2022/02/27 00:50:56;;;;;;;9.20;2.75;;;;;;;;;;4959767;28;20118;-93
2022/02/27 00:53:24;;;;;;;5.95;3.08;;;;;;;;;;4959217;28;20195;-93
2022/02/27 00:55:52;;;;;;;7.18;2.67;;;;;;;;;;4959812;28;20406;-93
2022/02/27 00:58:23;;;;;;;6.07;3.03;;;;;;;;;;4957372;28;20110;-93
2022/02/27 01:00:51;;;;;;;8.02;2.75;;;;;;;;;;4954905;28;20513;-93
2022/02/27 01:03:21;;;;;;;7.32;2.72;;;;;;;;;;4956191;28;20077;-93
2022/02/27 01:05:57;;;;;;;11.27;2.58;;;;;;;;;;4956237;28;20043;-93
2022/02/27 01:08:26;;;;;;;10.18;3.28;;;;;;;;;;4969444;28;20176;-93
2022/02/27 01:10:56;;;;;;;8.30;2.88;;;;;;;;;;4973244;28;20280;-93
2022/02/27 01:13:30;;;;;;;6.63;2.67;;;;;;;;;;4971262;28;20055;-93
2022/02/27 01:16:06;;;;;;;12.40;3.38;;;;;;;;;;4969235;28;20517;-93
2022/02/27 01:18:37;;;;;;;13.55;3.70;;;;;;;;;;4981455;28;20498;-93
2022/02/27 01:21:06;;;;;;;7.65;3.30;;;;;;;;;;4984671;28;20469;-93
2022/02/27 01:23:34;;;;;;;9.77;3.15;;;;;;;;;;4984984;28;20066;-93
2022/02/27 01:26:04;;;;;;;9.70;2.80;;;;;;;;;;4987563;28;20051;-93
2022/02/27 01:28:32;;;;;;;7.15;2.65;;;;;;;;;;4985851;28;20127;-93
2022/02/27 01:31:09;;;;;;;11.00;2.95;;;;;;;;;;4990489;28;20070;-93
2022/02/27 01:33:37;;;;;;;5.20;2.38;;;;;;;;;;4999852;28;20149;-93
2022/02/27 01:36:05;;;;;;;5.90;2.60;;;;;;;;;;4977580;28;20122;-93
2022/02/27 01:38:50;;;;;;;6.43;2.50;;;;;;;;;;4993730;28;20183;-93
2022/02/27 01:41:19;;;;;;;7.20;2.72;;;;;;;;;;4974417;28;20402;-93
2022/02/27 01:43:59;;;;;;;9.05;3.17;;;;;;;;;;4968050;28;20557;-93
2022/02/27 01:46:26;;;;;;;8.20;2.70;;;;;;;;;;4955224;29;20166;-94
2022/02/27 01:49:05;;;;;;;7.68;3.38;;;;;;;;;;4965413;28;20129;-93
2022/02/27 01:51:42;;;;;;;;;;;;;;;;;;;;;
2022/02/27 01:54:21;;;;;;;9.85;2.80;;;;;;;;;;4957639;28;20222;-93
2022/02/27 01:56:55;;;;;;;5.22;2.60;;;;;;;;;;4955530;29;20055;-93
2022/02/27 01:59:30;;;;;;;7.20;2.70;;;;;;;;;;4955225;29;20050;-94
2022/02/27 02:02:10;;;;;;;6.95;2.13;;;;;;;;;;4954979;29;20051;-93
2022/02/27 02:04:48;;;;;;;6.88;2.45;;;;;;;;;;4945327;29;20228;-94
2022/02/27 02:07:25;;;;;;;5.57;2.40;;;;;;;;;;4959240;29;20051;-94
2022/02/27 02:09:56;;;;;;;4.43;2.50;;;;;;;;;;4961154;29;20311;-94
2022/02/27 02:12:29;;;;;;;5.38;2.28;;;;;;;;;;4960111;29;20051;-93
2022/02/27 02:15:19;;;;;;;11.75;2.63;;;;;;;;;;4960912;29;20130;-93
2022/02/27 02:17:46;;;;;;;8.77;2.83;;;;;;;;;;4961617;28;20134;-94
2022/02/27 02:20:15;;;;;;;7.57;2.67;;;;;;;;;;4961798;29;20146;-94
2022/02/27 02:22:44;;;;;;;7.70;2.92;;;;;;;;;;4960752;29;20062;-93
2022/02/27 02:25:23;;;;;;;7.70;2.88;;;;;;;;;;4963569;28;20058;-94
2022/02/27 02:27:59;;;;;;;4.72;2.63;;;;;;;;;;4958137;28;20070;-94
2022/02/27 02:30:28;;;;;;;5.15;2.50;;;;;;;;;;4961919;29;20123;-94
2022/02/27 02:33:01;;;;;;;7.88;2.58;;;;;;;;;;4962910;29;20077;-94
2022/02/27 02:35:29;;;;;;;7.10;2.10;;;;;;;;;;4963648;29;20051;-94
2022/02/27 02:38:09;;;;;;;4.60;2.30;;;;;;;;;;4962518;29;20047;-94
2022/02/27 02:40:51;;;;;;;3.60;2.63;;;;;;;;;;4964870;29;20077;-94
2022/02/27 02:43:25;;;;;;;6.53;2.58;;;;;;;;;;4963871;29;20075;-94
2022/02/27 02:45:54;;;;;;;7.78;3.10;;;;;;;;;;4964740;29;20120;-95
2022/02/27 02:48:23;;;;;;;8.90;3.17;;;;;;;;;;4965107;29;20043;-94
2022/02/27 02:50:56;;;;;;;6.40;2.97;;;;;;;;;;4966859;28;20090;-94
2022/02/27 02:53:36;;;;;;;7.45;2.58;;;;;;;;;;4963398;29;20053;-94
2022/02/27 02:56:14;;;;;;;7.30;3.10;;;;;;;;;;4964667;29;20491;-94
2022/02/27 02:58:44;;;;;;;7.63;2.72;;;;;;;;;;4965745;29;20047;-94
2022/02/27 03:01:13;;;;;;;5.07;2.65;;;;;;;;;;4965522;29;20054;-94
2022/02/27 03:03:43;;;;;;;7.63;2.85;;;;;;;;;;4963072;29;20262;-93
2022/02/27 03:06:19;;;;;;;5.05;2.75;;;;;;;;;;4964337;29;20661;-93
2022/02/27 03:08:48;;;;;;;9.93;3.05;;;;;;;;;;4966322;29;20051;-93
2022/02/27 03:11:21;;;;;;;20.35;3.67;;;;;;;;;;4967740;29;20051;-94
2022/02/27 03:13:50;;;;;;;4.82;2.55;;;;;;;;;;4971149;29;20080;-94
2022/02/27 03:16:21;;;;;;;6.95;3.30;;;;;;;;;;4972627;29;20083;-94
2022/02/27 03:18:54;;;;;;;6.43;2.88;;;;;;;;;;4971929;28;20058;-94
2022/02/27 03:21:27;;;;;;;4.65;2.47;;;;;;;;;;4970861;28;20082;-93
2022/02/27 03:23:57;;;;;;;4.95;2.72;;;;;;;;;;4968149;29;20082;-93
2022/02/27 03:26:46;;;;;;;6.20;3.00;;;;;;;;;;4967842;29;20411;-93
2022/02/27 03:29:16;;;;;;;5.90;3.20;;;;;;;;;;4982402;28;20111;-94
2022/02/27 03:32:04;;;;;;;6.68;2.83;;;;;;;;;;4966793;29;20051;-94
2022/02/27 03:34:49;;;;;;;8.57;2.97;;;;;;;;;;4966233;29;20109;-94
2022/02/27 03:37:19;;;;;;;9.77;2.90;;;;;;;;;;4965917;29;20092;-94
2022/02/27 03:39:47;;;;;;;5.38;2.28;;;;;;;;;;4964103;28;20295;-94
2022/02/27 03:42:17;;;;;;;6.15;3.05;;;;;;;;;;4967531;29;20051;-94
2022/02/27 03:44:45;;;;;;;6.97;2.60;;;;;;;;;;4970205;28;20118;-94
2022/02/27 03:47:14;;;;;;;10.38;3.28;;;;;;;;;;4967898;29;20051;-94
2022/02/27 03:49:42;;;;;;;7.05;3.03;;;;;;;;;;4966551;29;20123;-93
2022/02/27 03:52:14;;;;;;;5.35;3.17;;;;;;;;;;4985077;28;20101;-94
2022/02/27 03:54:50;;;;;;;6.07;2.80;;;;;;;;;;4987642;28;20071;-94
2022/02/27 03:57:18;;;;;;;7.93;3.05;;;;;;;;;;4987428;28;20057;-93
2022/02/27 03:59:46;;;;;;;4.85;2.75;;;;;;;;;;4987007;28;20074;-94
2022/02/27 04:02:17;;;;;;;9.60;3.05;;;;;;;;;;4986825;28;20070;-94
2022/02/27 04:04:46;;;;;;;6.07;2.88;;;;;;;;;;4987998;28;20069;-94
2022/02/27 04:07:30;;;;;;;10.95;3.22;;;;;;;;;;4989212;28;20046;-94
2022/02/27 04:09:58;;;;;;;8.80;2.80;;;;;;;;;;4987507;28;20051;-94
2022/02/27 04:12:25;;;;;;;6.00;2.70;;;;;;;;;;4986540;28;20234;-94
2022/02/27 04:15:02;;;;;;;8.40;2.42;;;;;;;;;;4988147;28;20108;-94
2022/02/27 04:17:39;;;;;;;7.25;3.50;;;;;;;;;;4987678;28;20085;-94
2022/02/27 04:20:10;;;;;;;7.50;3.15;;;;;;;;;;4989219;28;20054;-94
2022/02/27 04:22:47;;;;;;;7.28;2.88;;;;;;;;;;4989491;28;20059;-94
2022/02/27 04:25:15;;;;;;;5.40;2.97;;;;;;;;;;4987930;28;20047;-94
2022/02/27 04:27:57;;;;;;;9.75;3.40;;;;;;;;;;4988773;28;20051;-94
2022/02/27 04:30:33;;;;;;;6.35;2.72;;;;;;;;;;4989526;28;20405;-94
2022/02/27 04:33:10;;;;;;;7.40;3.42;;;;;;;;;;4990713;28;20057;-94
2022/02/27 04:35:42;;;;;;;7.88;3.58;;;;;;;;;;4989588;28;20426;-93
2022/02/27 04:38:30;;;;;;;8.52;3.00;;;;;;;;;;4989563;28;20378;-94
2022/02/27 04:40:59;;;;;;;12.10;3.67;;;;;;;;;;4993857;28;20058;-93
2022/02/27 04:43:29;;;;;;;8.32;3.50;;;;;;;;;;4993192;28;20054;-94
2022/02/27 04:45:57;;;;;;;5.63;2.70;;;;;;;;;;5009573;28;20278;-93
2022/02/27 04:48:29;;;;;;;9.18;3.55;;;;;;;;;;5009544;28;20093;-94
2022/02/27 04:51:01;;;;;;;10.98;3.50;;;;;;;;;;5006017;28;20051;-93
2022/02/27 04:53:37;;;;;;;9.77;3.13;;;;;;;;;;5006013;28;20074;-94
2022/02/27 04:56:08;;;;;;;6.53;3.25;;;;;;;;;;5005224;28;20053;-94
2022/02/27 04:58:35;;;;;;;11.98;4.22;;;;;;;;;;5003893;28;20057;-95
2022/02/27 05:01:04;;;;;;;8.23;3.65;;;;;;;;;;5004684;28;20200;-94
2022/02/27 05:03:38;;;;;;;10.90;3.20;;;;;;;;;;5005087;28;20557;-93
2022/02/27 05:06:06;;;;;;;10.10;3.83;;;;;;;;;;5004592;28;20082;-94
2022/02/27 05:08:42;;;;;;;11.02;4.25;;;;;;;;;;5004026;28;20074;-94
2022/02/27 05:11:22;;;;;;;8.00;3.88;;;;;;;;;;4974238;28;20073;-94
2022/02/27 05:13:55;;;;;;;13.45;4.30;;;;;;;;;;5003913;28;20106;-93
2022/02/27 05:16:24;;;;;;;13.52;4.10;;;;;;;;;;5004234;28;20064;-94
2022/02/27 05:18:55;;;;;;;17.60;3.75;;;;;;;;;;5002206;28;20343;-93
2022/02/27 05:21:25;;;;;;;9.70;4.07;;;;;;;;;;5003828;28;20067;-93
2022/02/27 05:23:57;;;;;;;15.55;4.07;;;;;;;;;;5004332;28;20050;-94
2022/02/27 05:26:43;;;;;;;8.57;3.97;;;;;;;;;;5006133;28;20070;-94
2022/02/27 05:29:20;;;;;;;10.77;3.92;;;;;;;;;;5005665;28;20050;-94
2022/02/27 05:31:50;;;;;;;10.40;4.43;;;;;;;;;;5007184;28;20102;-93
2022/02/27 05:34:22;;;;;;;9.25;4.45;;;;;;;;;;5002282;28;20118;-93
2022/02/27 05:36:56;;;;;;;15.35;4.03;;;;;;;;;;5007903;28;20052;-93
2022/02/27 05:39:34;;;;;;;12.13;4.28;;;;;;;;;;5005600;28;20065;-94
2022/02/27 05:42:11;;;;;;;11.68;4.13;;;;;;;;;;5008597;28;20059;-93
2022/02/27 05:44:51;;;;;;;12.38;4.55;;;;;;;;;;4991349;28;20106;-93
2022/02/27 05:47:31;;;;;;;8.80;4.15;;;;;;;;;;5006680;28;20054;-94
2022/02/27 05:50:02;;;;;;;12.85;4.20;;;;;;;;;;5007122;28;20039;-94
2022/02/27 05:52:32;;;;;;;15.27;4.15;;;;;;;;;;5008727;28;20039;-94
2022/02/27 05:55:03;;;;;;;12.50;4.47;;;;;;;;;;5008535;28;20038;-94
2022/02/27 05:57:30;;;;;;;11.05;3.97;;;;;;;;;;5007111;28;20117;-94
2022/02/27 06:00:05;;;;;;;10.43;3.80;;;;;;;;;;5004524;28;20488;-94
2022/02/27 06:02:34;;;;;;;16.45;4.22;;;;;;;;;;5003896;28;20414;-94
2022/02/27 06:05:06;;;;;;;13.93;5.07;;;;;;;;;;5005481;28;20122;-94
2022/02/27 06:07:44;;;;;;;14.57;4.70;;;;;;;;;;5005646;28;20193;-94
2022/02/27 06:10:15;;;;;;;15.40;5.82;;;;;;;;;;5006487;28;20045;-94
2022/02/27 06:12:48;;;;;;;14.70;5.22;;;;;;;;;;5007914;28;20038;-94
2022/02/27 06:15:16;;;;;;;9.05;4.72;;;;;;;;;;5006293;28;20051;-94
2022/02/27 06:17:46;;;;;;;14.52;5.30;;;;;;;;;;5005341;28;20077;-94
2022/02/27 06:20:13;;;;;;;14.95;4.72;;;;;;;;;;4988778;28;20050;-94
2022/02/27 06:22:47;;;;;;;11.80;4.43;;;;;;;;;;5004446;28;20105;-94
2022/02/27 06:25:21;;;;;;;11.15;5.65;;;;;;;;;;5005261;28;20051;-94
2022/02/27 06:28:04;;;;;;;16.75;5.65;;;;;;;;;;4994169;28;20141;-94
2022/02/27 06:30:36;;;;;;;13.10;4.70;;;;;;;;;;5004080;28;20042;-94
2022/02/27 06:33:03;;;;;;;14.77;4.95;;;;;;;;;;5004003;28;20113;-93
2022/02/27 06:35:39;;;;;;;9.68;4.20;;;;;;;;;;5004050;28;20042;-94
2022/02/27 06:38:09;;;;;;;14.88;4.93;;;;;;;;;;5007361;28;20090;-94
2022/02/27 06:40:39;;;;;;;17.98;5.57;;;;;;;;;;5006999;28;20070;-94
2022/02/27 06:43:12;;;;;;;13.68;5.03;;;;;;;;;;5008132;28;20046;-93
2022/02/27 06:45:40;;;;;;;13.40;4.55;;;;;;;;;;5007246;28;20049;-93
2022/02/27 06:48:10;;;;;;;12.57;4.63;;;;;;;;;;4991376;28;20039;-93
2022/02/27 06:50:39;;;;;;;16.15;4.90;;;;;;;;;;4991064;28;20051;-93
2022/02/27 06:53:17;;;;;;;13.15;5.15;;;;;;;;;;4990819;28;20062;-93
2022/02/27 06:55:50;;;;;;;22.40;6.20;;;;;;;;;;4989293;28;20070;-93
2022/02/27 06:58:20;;;;;;;18.60;6.97;;;;;;;;;;4984202;28;20126;-92
2022/02/27 07:00:49;;;;;;;11.13;5.28;;;;;;;;;;4983056;28;20054;-93
2022/02/27 07:03:19;;;;;;;13.05;4.82;;;;;;;;;;4982755;28;20157;-93
2022/02/27 07:05:48;;;;;;;12.30;5.03;;;;;;;;;;4982148;28;20051;-93
2022/02/27 07:08:16;;;;;;;15.00;4.13;;;;;;;;;;4982958;28;20234;-93
2022/02/27 07:10:54;;;;;;;16.67;4.57;;;;;;;;;;4984434;28;20062;-93
2022/02/27 07:13:41;;;;;;;12.27;3.95;;;;;;;;;;4986024;28;20049;-94
2022/02/27 07:16:23;;;;;;;8.75;4.47;;;;;;;;;;4989898;28;20062;-94
2022/02/27 07:18:55;;;;;;;13.00;4.45;;;;;;;;;;4999861;28;20054;-94
2022/02/27 07:21:32;;;;;;;9.68;4.20;;;;;;;;;;4999140;28;20051;-94
2022/02/27 07:24:12;;;;;;;9.00;4.63;;;;;;;;;;4998805;28;20057;-93
2022/02/27 07:27:01;;;;;;;15.70;4.82;;;;;;;;;;4998301;28;20126;-94
2022/02/27 07:29:40;;;;;;;12.65;4.65;;;;;;;;;;4999074;28;20328;-94
2022/02/27 07:32:21;;;;;;;;;;;;;;;;;;;;;
2022/02/27 07:34:58;;;;;;;11.05;4.25;;;;;;;;;;4985688;28;20055;-94
2022/02/27 07:37:45;;;;;;;10.88;4.10;;;;;;;;;;4985476;28;20055;-94
2022/02/27 07:40:21;;;;;;;7.25;3.97;;;;;;;;;;4987646;28;20050;-93
2022/02/27 07:42:59;;;;;;;19.77;4.82;;;;;;;;;;4997789;28;20051;-94
2022/02/27 07:46:04;;;;;;;8.15;3.63;;;;;;;;;;5000959;28;20054;-94
2022/02/27 07:48:27;;;;;;;9.68;3.88;;;;;;;;;;4984053;28;20153;-93
2022/02/27 07:51:14;;;;;;;15.27;3.97;;;;;;;;;;4986128;28;20055;-93
2022/02/27 07:53:58;;;;;;;10.23;3.70;;;;;;;;;;4944839;29;20054;-93
2022/02/27 08:50:47;;;;;;;17.63;5.82;;;;;;;;;;5042775;28;20140;-93
2022/02/27 08:54:02;;;;;;;10.43;5.07;;;;;;;;;;5050063;28;20080;-94
2022/02/27 08:56:58;;;;;;;;;;;;;;;;;;;;;
2022/02/27 08:59:42;;;;;;;17.80;6.30;;;;;;;;;;5050227;28;20085;-93
2022/02/27 09:02:22;;;;;;;15.02;6.82;;;;;;;;;;5044208;28;20076;-95
2022/02/27 09:05:18;;;;;;;15.50;6.45;;;;;;;;;;5013510;28;20084;-94
2022/02/27 09:08:06;;;;;;;;;;;;;;;;;;;;;
2022/02/27 09:11:00;;;;;;;15.48;5.65;;;;;;;;;;4984384;28;20055;-94
2022/02/27 09:13:43;;;;;;;11.85;4.93;;;;;;;;;;4954231;28;20039;-94
2022/02/27 09:19:44;;;;;;;16.80;5.30;;;;;;;;;;4991912;28;20133;-94
2022/02/27 09:22:29;;;;;;;12.23;5.53;;;;;;;;;;4959848;28;20055;-94
2022/02/27 09:25:35;;;;;;;16.80;5.30;;;;;;;;;;4960128;28;20066;-94
2022/02/27 09:28:20;;;;;;;16.75;5.25;;;;;;;;;;4964290;29;20063;-95
2022/02/27 09:31:01;;;;;;;13.38;5.53;;;;;;;;;;4978792;28;20212;-94
2022/02/27 09:36:59;;;;;;;13.07;4.68;;;;;;;;;;4996569;28;20054;-95
2022/02/27 09:39:42;;;;;;;11.23;4.40;;;;;;;;;;4997702;28;20064;-94
2022/02/27 09:45:30;;;;;;;13.30;5.20;;;;;;;;;;5003698;28;20406;-95
2022/02/27 09:48:11;;;;;;;13.68;5.35;;;;;;;;;;5005447;28;20092;-95
2022/02/27 09:51:07;;;;;;;12.43;4.95;;;;;;;;;;5034949;28;20304;-95
2022/02/27 09:54:00;;;;;;;17.85;4.40;;;;;;;;;;5023365;28;20114;-95
2022/02/27 09:56:44;;;;;;;12.73;5.22;;;;;;;;;;5004694;28;20057;-95
2022/02/27 09:59:32;;;;;;;11.23;4.55;;;;;;;;;;5012850;28;20042;-94
2022/02/27 10:02:34;;;;;;;18.52;5.25;;;;;;;;;;5030144;28;20052;-95
2022/02/27 10:05:07;;;;;;;15.85;5.10;;;;;;;;;;5046078;28;20042;-95
2022/02/27 10:07:58;;;;;;;18.67;5.40;;;;;;;;;;5008911;28;20046;-93
2022/02/27 10:10:37;;;;;;;17.95;6.32;;;;;;;;;;5032523;28;20048;-95
2022/02/27 10:13:09;;;;;;;10.52;4.57;;;;;;;;;;5026263;28;20385;-95
2022/02/27 10:15:38;;;;;;;12.10;4.75;;;;;;;;;;5024477;28;20045;-95
2022/02/27 10:18:13;;;;;;;18.08;5.03;;;;;;;;;;5032979;28;20108;-94
2022/02/27 10:20:49;;;;;;;15.05;5.22;;;;;;;;;;5044234;28;20053;-94
2022/02/27 10:23:21;;;;;;;;;;;;;;;;;;5041256;28;20057;-94
2022/02/27 10:25:48;;;;;;;18.13;5.25;;;;;;;;;;5052808;28;19921;-94
2022/02/27 10:28:45;;;;;;;13.35;5.28;;;;;;;;;;5046656;28;20045;-94
2022/02/27 10:31:27;;;;;;;10.45;4.63;;;;;;;;;;5035412;28;20099;-94
2022/02/27 10:34:14;;;;;;;14.65;5.53;;;;;;;;;;5041880;28;20041;-94
2022/02/27 10:36:55;;;;;;;15.77;6.22;;;;;;;;;;5047940;28;20049;-95
2022/02/27 10:40:21;;;;;;;17.60;6.03;;;;;;;;;;5047490;28;20107;-95
2022/02/27 10:43:21;;;;;;;14.27;5.68;;;;;;;;;;5032826;28;20065;-94
2022/02/27 10:46:32;;;;;;;17.70;5.15;;;;;;;;;;5037051;28;20056;-94
2022/02/27 10:49:33;;;;;;;16.13;5.13;;;;;;;;;;5015417;28;20149;-94
2022/02/27 10:52:51;;;;;;;11.63;5.22;;;;;;;;;;5006893;28;20057;-94
2022/02/27 10:55:59;;;;;;;16.83;6.15;;;;;;;;;;4942316;29;20128;-95
2022/02/27 11:14:34;;;;;;;17.33;6.78;;;;;;;;;;5003568;28;20241;-94
2022/02/27 11:20:55;;;;;;;13.60;4.50;;;;;;;;;;5001863;28;20102;-94
2022/02/27 11:24:18;;;;;;;9.43;4.65;;;;;;;;;;5010241;28;20065;-95
2022/02/27 11:27:03;;;;;;;12.30;5.43;;;;;;;;;;5040330;28;20057;-94
2022/02/27 11:29:35;;;;;;;12.10;5.25;;;;;;;;;;5008461;28;20048;-94
2022/02/27 11:32:24;;;;;;;14.52;5.25;;;;;;;;;;5019420;28;20119;-93
2022/02/27 11:35:23;;;;;;;10.30;4.63;;;;;;;;;;5013654;28;20054;-93
2022/02/27 11:38:32;;;;;;;10.95;5.20;;;;;;;;;;4995370;28;20062;-94
2022/02/27 11:41:44;;;;;;;9.40;4.95;;;;;;;;;;5007037;28;20061;-94
2022/02/27 11:44:32;;;;;;;12.55;5.05;;;;;;;;;;5013285;28;20369;-94
2022/02/27 11:58:00;;;;;;;13.00;4.78;;;;;;;;;;5639276;22;15236765;-93
2022/02/27 12:01:11;;;;;;;13.38;5.00;;;;;;;;;;6256418;22;20027;-93
2022/02/27 12:04:12;;;;;;;11.38;4.85;;;;;;;;;;6258191;22;20074;-93
2022/02/27 12:10:31;;;;;;;7.75;4.22;;;;;;;;;;6287235;22;20027;-94
2022/02/27 12:13:45;;;;;;;10.88;4.28;;;;;;;;;;6269272;22;20032;-94
2022/02/27 12:16:49;;;;;;;;;;;;;;;;;;;;;
2022/02/27 12:19:59;;;;;;;12.52;3.85;;;;;;;;;;5101652;27;20798;-94
2022/02/27 12:23:03;;;;;;;14.95;4.80;;;;;;;;;;5085184;28;20056;-94
2022/02/27 12:25:59;;;;;;;10.30;4.07;;;;;;;;;;5072573;28;20104;-93
2022/02/27 12:28:55;;;;;;;9.27;4.55;;;;;;;;;;5088079;28;20036;-95
2022/02/27 12:32:15;;;;;;;10.40;4.78;;;;;;;;;;5091028;28;20063;-94
2022/02/27 12:35:02;;;;;;;10.18;4.60;;;;;;;;;;5087215;28;20056;-93
2022/02/27 12:37:46;;;;;;;12.13;4.78;;;;;;;;;;5081017;28;20079;-94
2022/02/27 12:40:26;;;;;;;10.43;4.22;;;;;;;;;;5105542;28;20354;-94
2022/02/27 12:43:14;;;;;;;10.15;4.78;;;;;;;;;;5090183;28;20040;-94
2022/02/27 12:45:59;;;;;;;6.93;3.78;;;;;;;;;;5089315;28;20037;-93
2022/02/27 12:51:37;;;;;;;12.95;4.65;;;;;;;;;;5098532;28;20043;-93
2022/02/27 12:54:34;;;;;;;11.63;4.95;;;;;;;;;;5088350;28;20044;-93
2022/02/27 13:01:04;;;;;;;15.70;4.82;;;;;;;;;;5038883;28;20063;-93
2022/02/27 13:03:42;;;;;;;12.65;4.82;;;;;;;;;;5030213;28;20053;-93
2022/02/27 13:06:26;;;;;;;9.90;4.72;;;;;;;;;;4973770;28;20039;-93
2022/02/27 13:20:13;;;;;;;;;;;;;;;;;;;;;
2022/02/27 13:23:16;;;;;;;;;;;;;;;;;;;;;
2022/02/27 13:29:36;;;;;;;8.07;4.43;;;;;;;;;;6170244;23;20169;-95
2022/02/27 13:53:22;;;;;;;7.72;3.65;;;;;;;;;;6273681;22;20143;-94
2022/02/27 13:56:47;;;;;;;;;;;;;;;;;;;;;
2022/02/27 14:00:07;;;;;;;6.32;2.85;;;;;;;;;;6177838;23;20008;-94
2022/02/27 14:11:37;;;;;;;8.95;3.10;;;;;;;;;;6291740;22;20022;-94
2022/02/27 14:15:03;;;;;;;10.68;3.35;;;;;;;;;;6147371;23;20073;-96
2022/02/27 14:18:09;;;;;;;6.90;2.83;;;;;;;;;;6276902;22;20022;-94
2022/02/27 14:21:12;;;;;;;8.27;3.13;;;;;;;;;;6269654;22;20024;-93
2022/02/27 14:28:02;;;;;;;11.65;3.50;;;;;;;;;;6288591;22;20049;-95
2022/02/27 14:30:48;;;;;;;8.45;3.15;;;;;;;;;;6281097;22;20230;-93
2022/02/27 14:34:04;;;;;;;7.25;2.90;;;;;;;;;;6286390;22;20094;-93
2022/02/27 14:37:06;;;;;;;9.25;3.10;;;;;;;;;;6191997;22;20012;-94
2022/02/27 14:40:01;;;;;;;;;;;;;;;;;;;;;
2022/02/27 14:42:37;;;;;;;7.25;2.92;;;;;;;;;;6287490;22;20225;-95
2022/02/27 14:45:27;;;;;;;8.68;2.50;;;;;;;;;;6260950;22;20354;-95
2022/02/27 14:48:05;;;;;;;9.32;2.88;;;;;;;;;;6263577;22;20023;-95
2022/02/27 14:50:50;;;;;;;6.70;2.40;;;;;;;;;;6272776;22;20011;-94
2022/02/27 15:11:03;;;;;;;;;;;;;;;;;;;;;
2022/02/27 15:16:27;;;;;;;8.65;3.50;;;;;;;;;;6281603;22;20027;-94
2022/02/27 15:19:20;;;;;;;7.93;2.78;;;;;;;;;;6262787;22;20049;-94
2022/02/27 15:22:34;;;;;;;7.93;2.58;;;;;;;;;;6260793;22;20020;-95
2022/02/27 15:25:38;;;;;;;;;;;;;;;;;;;;;
2022/02/27 15:28:45;;;;;;;10.90;3.50;;;;;;;;;;6281473;22;20120;-94
2022/02/27 15:31:19;;;;;;;8.32;3.00;;;;;;;;;;6259135;22;20079;-94
2022/02/27 15:33:53;;;;;;;10.27;3.97;;;;;;;;;;6254321;22;20024;-94
2022/02/27 15:36:28;;;;;;;8.68;2.78;;;;;;;;;;6257344;22;20019;-94
2022/02/27 15:39:11;;;;;;;10.82;3.20;;;;;;;;;;6262379;22;20023;-94
2022/02/27 15:42:07;;;;;;;6.32;2.20;;;;;;;;;;6259815;22;20037;-94
2022/02/27 15:44:52;;;;;;;11.17;2.70;;;;;;;;;;6260664;22;20035;-94
2022/02/27 15:47:31;;;;;;;11.38;3.35;;;;;;;;;;6258564;22;20476;-94
2022/02/27 15:50:15;;;;;;;6.30;2.03;;;;;;;;;;6282840;22;20026;-94
2022/02/27 15:53:11;;;;;;;9.10;2.22;;;;;;;;;;6129938;23;20177;-95
2022/02/27 15:55:39;;;;;;;5.55;2.50;;;;;;;;;;6106241;23;20120;-95
2022/02/27 15:58:09;;;;;;;6.93;2.72;;;;;;;;;;6111216;23;20089;-95
2022/02/27 16:00:55;;;;;;;9.20;3.03;;;;;;;;;;6136790;23;20026;-95
2022/02/27 16:09:28;;;;;;;12.85;3.25;;;;;;;;;;6130981;23;20022;-94
2022/02/27 16:12:16;;;;;;;12.60;3.63;;;;;;;;;;6109929;23;20048;-94
2022/02/27 16:15:11;;;;;;;9.82;3.20;;;;;;;;;;6130078;22;20028;-94
2022/02/27 16:17:45;;;;;;;11.07;2.90;;;;;;;;;;6240986;22;20019;-95
2022/02/27 16:20:17;;;;;;;6.78;2.95;;;;;;;;;;6267372;22;20030;-95
2022/02/27 16:22:50;;;;;;;14.00;3.67;;;;;;;;;;6264440;22;20119;-95
2022/02/27 16:25:28;;;;;;;13.82;3.60;;;;;;;;;;6264473;22;20008;-95
2022/02/27 16:27:57;;;;;;;6.20;2.72;;;;;;;;;;6264412;22;20073;-95
2022/02/27 16:30:59;;;;;;;10.45;3.90;;;;;;;;;;6265538;22;20064;-95
2022/02/27 16:33:29;;;;;;;7.15;2.85;;;;;;;;;;6261636;22;20128;-95
2022/02/27 16:36:00;;;;;;;8.77;2.90;;;;;;;;;;6255556;22;20027;-95
2022/02/27 16:38:32;;;;;;;10.13;2.90;;;;;;;;;;6257010;22;20024;-95
2022/02/27 16:41:07;;;;;;;10.05;2.58;;;;;;;;;;6257484;22;20428;-94
